createdAt,value
2024-04-24T00:01:25.651Z,4.10
2024-04-24T00:03:52.422Z,3.83
2024-04-24T00:06:19.450Z,3.57
2024-04-24T00:08:46.215Z,3.97
2024-04-24T00:11:13.016Z,3.70
2024-04-24T00:13:39.798Z,4.03
2024-04-24T00:16:06.869Z,4.20
2024-04-24T00:18:33.668Z,4.37
2024-04-24T00:21:00.399Z,4.40
2024-04-24T00:23:27.510Z,4.43
2024-04-24T00:25:58.159Z,4.43
2024-04-24T00:28:24.904Z,4.13
2024-04-24T00:30:58.172Z,4.33
2024-04-24T00:33:25.031Z,4.50
2024-04-24T00:35:51.947Z,4.77
2024-04-24T00:38:18.746Z,4.57
2024-04-24T00:40:45.573Z,4.90
2024-04-24T00:43:12.308Z,4.53
2024-04-24T00:45:39.423Z,5.10
2024-04-24T00:48:07.627Z,5.03
2024-04-24T00:50:35.716Z,5.00
2024-04-24T00:53:03.876Z,4.60
2024-04-24T00:55:31.237Z,4.70
2024-04-24T00:57:58.211Z,4.30
2024-04-24T01:00:25.611Z,4.07
2024-04-24T01:02:52.696Z,4.10
2024-04-24T01:05:19.590Z,4.60
2024-04-24T01:07:46.470Z,4.70
2024-04-24T01:10:17.752Z,4.17
2024-04-24T01:12:49.590Z,4.00
2024-04-24T01:15:17.727Z,4.33
2024-04-24T01:17:48.992Z,4.50
2024-04-24T01:20:19.475Z,4.83
2024-04-24T01:22:52.528Z,4.20
2024-04-24T01:25:27.782Z,4.10
2024-04-24T01:27:54.564Z,4.40
2024-04-24T01:30:21.297Z,4.00
2024-04-24T01:32:48.117Z,4.53
2024-04-24T01:35:15.213Z,4.17
2024-04-24T01:37:41.981Z,4.73
2024-04-24T01:40:09.043Z,4.47
2024-04-24T01:42:35.862Z,4.83
2024-04-24T01:45:03.776Z,4.73
2024-04-24T01:47:30.997Z,5.20
2024-04-24T01:49:57.804Z,4.70
2024-04-24T01:52:24.495Z,4.90
2024-04-24T01:54:51.884Z,4.90
2024-04-24T01:57:18.835Z,5.17
2024-04-24T01:59:47.384Z,4.93
2024-04-24T02:02:14.150Z,4.33
2024-04-24T02:04:41.444Z,4.43
2024-04-24T02:07:08.516Z,4.40
2024-04-24T02:09:35.701Z,4.63
2024-04-24T02:12:10.195Z,5.37
2024-04-24T02:14:42.638Z,4.67
2024-04-24T02:17:10.330Z,5.23
2024-04-24T02:19:37.498Z,5.23
2024-04-24T02:22:04.351Z,5.67
2024-04-24T02:24:49.782Z,4.87
2024-04-24T02:27:17.290Z,5.13
2024-04-24T02:29:51.833Z,5.27
2024-04-24T02:32:23.214Z,5.30
2024-04-24T02:34:50.334Z,5.43
2024-04-24T02:37:18.008Z,5.47
2024-04-24T02:39:45.549Z,5.07
2024-04-24T02:42:12.627Z,5.87
2024-04-24T02:44:39.890Z,5.20
2024-04-24T02:47:06.917Z,4.90
2024-04-24T02:49:33.836Z,5.27
2024-04-24T02:52:00.711Z,5.40
2024-04-24T02:54:28.573Z,4.83
2024-04-24T02:56:55.274Z,5.67
2024-04-24T02:59:22.083Z,5.10
2024-04-24T03:01:48.981Z,5.20
2024-04-24T03:04:15.704Z,5.40
2024-04-24T03:06:45.303Z,5.50
2024-04-24T03:09:13.204Z,5.10
2024-04-24T03:11:41.239Z,5.03
2024-04-24T03:14:09.474Z,5.43
2024-04-24T03:16:36.975Z,4.93
2024-04-24T03:19:05.123Z,5.50
2024-04-24T03:21:32.365Z,5.70
2024-04-24T03:23:59.420Z,5.20
2024-04-24T03:26:27.942Z,5.20
2024-04-24T03:28:56.580Z,5.23
2024-04-24T03:31:23.815Z,4.83
2024-04-24T03:33:51.822Z,4.50
2024-04-24T03:36:18.958Z,4.93
2024-04-24T03:38:45.717Z,5.47
2024-04-24T03:41:12.823Z,5.10
2024-04-24T03:43:40.507Z,5.40
2024-04-24T03:46:07.614Z,5.40
2024-04-24T03:48:34.785Z,5.03
2024-04-24T03:51:02.026Z,5.37
2024-04-24T03:53:28.874Z,5.67
2024-04-24T03:55:55.705Z,5.23
2024-04-24T03:58:22.421Z,5.63
2024-04-24T04:00:49.568Z,4.90
2024-04-24T04:03:16.526Z,5.30
2024-04-24T04:05:43.242Z,5.17
2024-04-24T04:08:10.069Z,4.80
2024-04-24T04:10:36.831Z,5.30
2024-04-24T04:13:04.656Z,5.63
2024-04-24T04:15:31.668Z,4.73
2024-04-24T04:17:58.580Z,5.93
2024-04-24T04:20:25.549Z,5.63
2024-04-24T04:22:54.825Z,5.43
2024-04-24T04:25:22.087Z,5.60
2024-04-24T04:27:49.707Z,5.43
2024-04-24T04:30:16.700Z,5.50
2024-04-24T04:32:44.144Z,5.43
2024-04-24T04:35:11.532Z,5.30
2024-04-24T04:37:39.643Z,5.20
2024-04-24T04:40:07.803Z,5.23
2024-04-24T04:42:34.875Z,5.30
2024-04-24T04:45:01.812Z,5.67
2024-04-24T04:47:30.428Z,5.43
2024-04-24T04:49:57.252Z,5.23
2024-04-24T04:52:23.960Z,5.80
2024-04-24T04:54:51.404Z,5.17
2024-04-24T04:57:18.153Z,5.50
2024-04-24T04:59:46.221Z,5.40
2024-04-24T05:02:13.385Z,5.43
2024-04-24T05:04:40.242Z,5.47
2024-04-24T05:07:07.382Z,5.60
2024-04-24T05:09:37.528Z,5.80
2024-04-24T05:12:07.292Z,5.37
2024-04-24T05:14:36.218Z,5.60
2024-04-24T05:17:03.643Z,5.10
2024-04-24T05:19:31.370Z,5.30
2024-04-24T05:21:58.604Z,5.70
2024-04-24T05:24:26.278Z,5.23
2024-04-24T05:27:12.263Z,4.77
2024-04-24T05:29:40.080Z,5.00
2024-04-24T05:32:07.999Z,4.53
2024-04-24T05:34:36.030Z,5.40
2024-04-24T05:37:03.056Z,4.70
2024-04-24T05:39:31.301Z,4.70
2024-04-24T05:41:58.243Z,5.20
2024-04-24T05:44:28.921Z,4.83
2024-04-24T05:46:56.242Z,5.30
2024-04-24T05:49:23.742Z,5.00
2024-04-24T05:51:51.575Z,5.30
2024-04-24T05:54:18.875Z,5.27
2024-04-24T05:56:45.612Z,5.33
2024-04-24T05:59:14.597Z,5.00
2024-04-24T06:01:42.330Z,5.30
2024-04-24T06:04:09.685Z,5.73
2024-04-24T06:06:37.515Z,5.20
2024-04-24T06:09:05.167Z,4.83
2024-04-24T06:11:32.419Z,5.43
2024-04-24T06:14:00.443Z,5.20
2024-04-24T06:16:27.277Z,5.70
2024-04-24T06:18:54.916Z,5.53
2024-04-24T06:21:22.042Z,5.83
2024-04-24T06:23:49.917Z,5.23
2024-04-24T06:26:17.976Z,6.20
2024-04-24T06:28:45.643Z,5.60
2024-04-24T06:31:13.226Z,5.83
2024-04-24T06:33:40.744Z,6.13
2024-04-24T06:36:08.304Z,6.57
2024-04-24T06:38:35.207Z,6.40
2024-04-24T06:41:02.172Z,6.60
2024-04-24T06:43:30.711Z,6.67
2024-04-24T06:45:58.639Z,7.10
2024-04-24T06:48:26.030Z,6.60
2024-04-24T06:50:58.820Z,7.27
2024-04-24T06:53:26.864Z,6.60
2024-04-24T06:56:00.309Z,6.77
2024-04-24T06:58:30.278Z,7.37
2024-04-24T07:00:58.422Z,7.40
2024-04-24T07:03:26.239Z,7.17
2024-04-24T07:05:53.731Z,7.70
2024-04-24T07:08:23.640Z,7.67
2024-04-24T07:10:53.348Z,8.13
2024-04-24T07:13:21.754Z,7.33
2024-04-24T07:15:48.504Z,7.27
2024-04-24T07:18:15.325Z,7.47
2024-04-24T07:20:43.434Z,7.43
2024-04-24T07:23:11.923Z,7.40
2024-04-24T07:25:39.657Z,7.03
2024-04-24T07:28:08.506Z,7.20
2024-04-24T07:30:36.374Z,8.37
2024-04-24T07:33:03.283Z,9.20
2024-04-24T07:35:30.202Z,9.23
2024-04-24T07:37:57.682Z,9.33
2024-04-24T07:40:24.908Z,8.80
2024-04-24T07:42:53.401Z,9.13
2024-04-24T07:45:20.413Z,8.93
2024-04-24T07:47:47.457Z,9.43
2024-04-24T07:50:14.680Z,8.93
2024-04-24T07:52:41.471Z,8.97
2024-04-24T07:55:08.553Z,9.33
2024-04-24T07:57:35.571Z,8.83
2024-04-24T08:00:02.668Z,8.10
2024-04-24T08:02:39.014Z,8.20
2024-04-24T08:05:06.688Z,7.70
2024-04-24T08:07:36.478Z,8.63
2024-04-24T08:10:03.636Z,7.93
2024-04-24T08:12:30.921Z,7.93
2024-04-24T08:14:58.856Z,8.47
2024-04-24T08:17:26.199Z,8.67
2024-04-24T08:19:53.738Z,8.53
2024-04-24T08:22:20.981Z,7.93
2024-04-24T08:24:48.066Z,7.87
2024-04-24T08:27:16.066Z,8.73
2024-04-24T08:29:43.284Z,7.37
2024-04-24T08:32:10.367Z,7.73
2024-04-24T08:34:37.581Z,7.90
2024-04-24T08:37:04.627Z,8.00
2024-04-24T08:39:32.530Z,7.67
2024-04-24T08:42:00.581Z,7.83
2024-04-24T08:44:32.706Z,8.70
2024-04-24T08:47:01.476Z,8.03
2024-04-24T08:49:32.976Z,7.53
2024-04-24T08:52:02.350Z,8.50
2024-04-24T08:54:31.101Z,8.50
2024-04-24T08:57:01.540Z,8.17
2024-04-24T08:59:30.543Z,8.13
2024-04-24T09:02:09.026Z,8.50
2024-04-24T09:04:37.632Z,7.57
2024-04-24T09:07:05.053Z,7.37
2024-04-24T09:09:33.433Z,7.47
2024-04-24T09:12:06.956Z,8.43
2024-04-24T09:14:34.744Z,8.37
2024-04-24T09:17:03.714Z,8.30
2024-04-24T09:19:32.979Z,8.47
2024-04-24T09:22:01.307Z,8.40
2024-04-24T09:24:28.621Z,8.77
2024-04-24T09:26:57.255Z,8.50
2024-04-24T09:29:24.318Z,8.77
2024-04-24T09:31:51.307Z,8.97
2024-04-24T09:34:18.497Z,7.97
2024-04-24T09:36:48.390Z,8.10
2024-04-24T09:39:17.219Z,8.43
2024-04-24T09:41:47.802Z,7.77
2024-04-24T09:44:16.111Z,8.00
2024-04-24T09:46:55.173Z,9.37
2024-04-24T09:49:22.703Z,8.27
2024-04-24T09:51:51.517Z,8.07
2024-04-24T09:54:19.194Z,8.43
2024-04-24T09:56:48.032Z,7.73
2024-04-24T09:59:19.018Z,8.23
2024-04-24T10:01:55.035Z,7.77
2024-04-24T10:04:24.591Z,7.03
2024-04-24T10:06:52.197Z,6.80
2024-04-24T10:09:24.434Z,6.00
2024-04-24T10:12:05.962Z,5.77
2024-04-24T10:14:35.894Z,5.00
2024-04-24T10:17:03.795Z,4.50
2024-04-24T10:19:31.913Z,4.27
2024-04-24T10:22:00.168Z,4.50
2024-04-24T10:24:28.514Z,4.50
2024-04-24T10:26:56.228Z,4.23
2024-04-24T10:29:24.222Z,4.23
2024-04-24T10:31:55.232Z,4.60
2024-04-24T10:34:25.079Z,4.33
2024-04-24T10:36:53.199Z,4.90
2024-04-24T10:39:20.787Z,4.50
2024-04-24T10:41:48.657Z,4.90
2024-04-24T10:44:16.979Z,4.80
2024-04-24T10:46:46.225Z,4.20
2024-04-24T10:49:13.125Z,4.60
2024-04-24T10:51:47.979Z,5.00
2024-04-24T10:54:15.701Z,5.20
2024-04-24T10:56:43.912Z,5.67
2024-04-24T10:59:11.698Z,8.37
2024-04-24T11:01:52.376Z,5.80
2024-04-24T11:04:27.539Z,8.87
2024-04-24T11:06:54.964Z,5.37
2024-04-24T11:09:22.225Z,9.07
2024-04-24T11:11:55.308Z,7.60
2024-04-24T11:14:22.501Z,8.60
2024-04-24T11:16:59.619Z,6.67
2024-04-24T11:19:26.697Z,6.40
2024-04-24T11:21:53.829Z,5.03
2024-04-24T11:24:34.268Z,5.73
2024-04-24T11:27:02.088Z,5.43
2024-04-24T11:29:37.045Z,4.27
2024-04-24T11:32:05.720Z,4.70
2024-04-24T11:34:33.578Z,4.73
2024-04-24T11:37:00.569Z,4.87
2024-04-24T11:39:27.402Z,4.93
2024-04-24T11:41:56.322Z,4.80
2024-04-24T11:44:23.398Z,4.27
2024-04-24T11:46:50.229Z,4.30
2024-04-24T11:49:19.984Z,4.90
2024-04-24T11:51:48.136Z,4.03
2024-04-24T11:54:14.882Z,4.60
2024-04-24T11:56:43.291Z,3.83
2024-04-24T11:59:10.634Z,3.53
2024-04-24T12:01:40.038Z,3.33
2024-04-24T12:04:08.146Z,3.83
2024-04-24T12:06:43.281Z,4.00
2024-04-24T12:09:11.741Z,3.37
2024-04-24T12:11:46.053Z,3.87
2024-04-24T12:14:15.966Z,3.80
2024-04-24T12:16:43.837Z,3.70
2024-04-24T12:19:10.862Z,3.60
2024-04-24T12:21:37.685Z,3.90
2024-04-24T12:24:04.619Z,3.97
2024-04-24T12:26:31.748Z,3.83
2024-04-24T12:28:58.533Z,3.70
2024-04-24T12:31:25.376Z,4.40
2024-04-24T12:33:52.442Z,3.80
2024-04-24T12:36:19.295Z,3.70
2024-04-24T12:38:46.041Z,4.00
2024-04-24T12:41:12.808Z,3.70
2024-04-24T12:43:39.602Z,4.40
2024-04-24T12:46:07.298Z,4.03
2024-04-24T12:48:35.125Z,4.10
2024-04-24T12:51:07.494Z,4.73
2024-04-24T12:53:34.369Z,4.00
2024-04-24T12:56:01.098Z,4.30
2024-04-24T12:58:27.844Z,4.30
2024-04-24T13:00:54.624Z,3.60
2024-04-24T13:03:21.663Z,4.20
2024-04-24T13:05:48.432Z,4.00
2024-04-24T13:08:15.231Z,4.13
2024-04-24T13:10:43.035Z,3.87
2024-04-24T13:13:09.806Z,3.30
2024-04-24T13:15:36.584Z,3.77
2024-04-24T13:18:04.431Z,3.60
2024-04-24T13:20:31.391Z,2.63
2024-04-24T13:22:58.219Z,3.03
2024-04-24T13:25:24.972Z,3.07
2024-04-24T13:27:51.656Z,2.53
2024-04-24T13:30:18.547Z,2.60
2024-04-24T13:32:45.396Z,2.57
2024-04-24T13:35:12.283Z,2.20
2024-04-24T13:37:39.137Z,2.00
2024-04-24T13:40:06.547Z,1.30
2024-04-24T13:42:33.448Z,1.00
2024-04-24T13:45:00.377Z,0.90
2024-04-24T13:47:28.824Z,1.03
2024-04-24T13:49:55.737Z,1.20
2024-04-24T13:52:22.455Z,1.37
2024-04-24T13:54:49.395Z,1.27
2024-04-24T13:57:16.270Z,1.80
2024-04-24T13:59:43.128Z,1.63
2024-04-24T14:02:09.912Z,1.63
2024-04-24T14:04:36.668Z,1.73
2024-04-24T14:07:03.483Z,1.80
2024-04-24T14:09:30.233Z,1.80
2024-04-24T14:11:56.953Z,1.90
2024-04-24T14:14:24.055Z,1.70
2024-04-24T14:16:50.967Z,2.40
2024-04-24T14:19:17.847Z,2.20
2024-04-24T14:21:44.546Z,2.03
2024-04-24T14:24:11.251Z,2.50
2024-04-24T14:26:37.983Z,2.27
2024-04-24T14:29:04.775Z,2.57
2024-04-24T14:31:31.562Z,2.60
2024-04-24T14:33:58.233Z,2.70
2024-04-24T14:36:24.930Z,2.20
2024-04-24T14:38:54.426Z,1.97
2024-04-24T14:41:21.139Z,1.50
2024-04-24T14:43:48.031Z,1.53
2024-04-24T14:46:14.948Z,1.90
2024-04-24T14:48:41.981Z,1.43
2024-04-24T14:51:08.869Z,1.50
2024-04-24T14:53:36.138Z,1.40
2024-04-24T14:56:05.105Z,1.40
2024-04-24T14:58:31.833Z,1.43
2024-04-24T15:00:58.754Z,1.40
2024-04-24T15:03:25.707Z,1.43
2024-04-24T15:05:52.625Z,1.20
2024-04-24T15:08:19.455Z,1.07
2024-04-24T15:10:46.266Z,1.10
2024-04-24T15:13:13.477Z,1.30
2024-04-24T15:15:44.542Z,0.90
2024-04-24T15:18:11.371Z,0.83
2024-04-24T15:20:39.266Z,0.93
2024-04-24T15:23:06.052Z,0.63
2024-04-24T15:25:32.812Z,1.10
2024-04-24T15:27:59.773Z,0.70
2024-04-24T15:30:29.342Z,0.90
2024-04-24T15:32:56.154Z,0.80
2024-04-24T15:35:22.924Z,0.97
2024-04-24T15:37:50.853Z,2.17
2024-04-24T15:40:17.579Z,3.40
2024-04-24T15:42:44.306Z,1.23
2024-04-24T15:45:11.098Z,2.30
2024-04-24T15:47:38.010Z,2.10
2024-04-24T15:50:05.231Z,2.53
2024-04-24T15:52:31.992Z,1.40
2024-04-24T15:54:59.932Z,1.10
2024-04-24T15:57:26.690Z,1.20
2024-04-24T15:59:53.439Z,0.90
2024-04-24T16:02:20.262Z,1.07
2024-04-24T16:04:47.009Z,1.00
2024-04-24T16:07:13.933Z,1.00
2024-04-24T16:09:40.752Z,0.90
2024-04-24T16:12:09.153Z,0.80
2024-04-24T16:14:36.057Z,0.60
2024-04-24T16:17:04.853Z,0.80
2024-04-24T16:19:31.714Z,0.70
2024-04-24T16:21:58.503Z,0.60
2024-04-24T16:24:25.374Z,0.77
2024-04-24T16:26:52.115Z,0.90
2024-04-24T16:29:18.938Z,1.27
2024-04-24T16:31:45.673Z,1.20
2024-04-24T16:34:12.493Z,1.10
2024-04-24T16:36:39.231Z,0.93
2024-04-24T16:39:06.080Z,1.40
2024-04-24T16:41:32.955Z,2.23
2024-04-24T16:43:59.925Z,1.80
2024-04-24T16:46:27.960Z,1.50
2024-04-24T16:48:54.795Z,1.30
2024-04-24T16:51:21.565Z,1.37
2024-04-24T16:53:48.405Z,1.10
2024-04-24T16:56:18.230Z,1.00
2024-04-24T16:58:45.085Z,1.50
2024-04-24T17:01:13.513Z,1.07
2024-04-24T17:03:40.259Z,1.10
2024-04-24T17:06:07.100Z,1.07
2024-04-24T17:08:34.016Z,1.33
2024-04-24T17:11:00.911Z,1.40
2024-04-24T17:13:27.904Z,1.00
2024-04-24T17:15:54.661Z,1.40
2024-04-24T17:18:21.669Z,2.40
2024-04-24T17:20:49.081Z,2.77
2024-04-24T17:23:15.862Z,8.97
2024-04-24T17:25:42.567Z,4.57
2024-04-24T17:28:09.316Z,1.90
2024-04-24T17:30:36.030Z,1.47
2024-04-24T17:33:03.133Z,1.83
2024-04-24T17:35:30.044Z,1.63
2024-04-24T17:37:56.976Z,1.80
2024-04-24T17:40:24.183Z,1.47
2024-04-24T17:42:50.916Z,1.60
2024-04-24T17:45:17.701Z,1.70
2024-04-24T17:47:44.594Z,1.73
2024-04-24T17:50:11.426Z,1.30
2024-04-24T17:52:38.344Z,1.13
2024-04-24T17:55:06.510Z,1.73
2024-04-24T17:57:35.775Z,1.80
2024-04-24T18:00:03.997Z,1.43
2024-04-24T18:02:31.548Z,1.27
2024-04-24T18:05:01.640Z,2.00
2024-04-24T18:07:32.264Z,1.70
2024-04-24T18:09:59.048Z,1.50
2024-04-24T18:12:25.875Z,1.40
2024-04-24T18:14:52.595Z,2.47
2024-04-24T18:17:20.143Z,2.00
2024-04-24T18:19:46.859Z,1.57
2024-04-24T18:22:13.928Z,1.97
2024-04-24T18:24:42.307Z,2.23
2024-04-24T18:27:09.128Z,1.83
2024-04-24T18:29:36.347Z,2.10
2024-04-24T18:32:03.233Z,4.83
2024-04-24T18:34:30.015Z,8.87
2024-04-24T18:36:56.722Z,11.23
2024-04-24T18:39:23.645Z,5.67
2024-04-24T18:41:50.504Z,15.20
2024-04-24T18:44:17.366Z,5.27
2024-04-24T18:46:44.090Z,8.03
2024-04-24T18:49:10.930Z,4.03
2024-04-24T18:51:37.692Z,12.70
2024-04-24T18:54:04.537Z,9.37
2024-04-24T18:56:31.363Z,11.00
2024-04-24T18:58:58.324Z,6.43
2024-04-24T19:01:25.131Z,4.80
2024-04-24T19:03:51.867Z,3.10
2024-04-24T19:06:18.672Z,2.40
2024-04-24T19:08:46.140Z,5.50
2024-04-24T19:11:12.979Z,6.50
2024-04-24T19:13:39.836Z,4.80
2024-04-24T19:16:06.861Z,2.80
2024-04-24T19:18:33.595Z,2.60
2024-04-24T19:21:05.839Z,3.70
2024-04-24T19:23:32.616Z,4.50
2024-04-24T19:25:59.497Z,4.33
2024-04-24T19:28:26.299Z,3.50
2024-04-24T19:30:52.985Z,2.23
2024-04-24T19:33:20.409Z,4.50
2024-04-24T19:35:49.162Z,2.13
2024-04-24T19:38:17.221Z,1.83
2024-04-24T19:40:46.963Z,1.50
2024-04-24T19:43:13.720Z,1.57
2024-04-24T19:45:40.486Z,5.80
2024-04-24T19:48:07.841Z,4.73
2024-04-24T19:50:37.677Z,8.20
2024-04-24T19:53:04.637Z,7.53
2024-04-24T19:55:35.832Z,4.30
2024-04-24T19:58:02.987Z,5.07
2024-04-24T20:00:29.928Z,5.83
2024-04-24T20:02:56.746Z,4.00
2024-04-24T20:05:23.522Z,3.90
2024-04-24T20:07:50.465Z,5.23
2024-04-24T20:10:17.337Z,8.57
2024-04-24T20:12:44.097Z,5.00
2024-04-24T20:15:10.868Z,2.90
2024-04-24T20:17:37.773Z,4.80
2024-04-24T20:20:05.079Z,2.60
2024-04-24T20:22:31.779Z,2.03
2024-04-24T20:24:58.939Z,1.23
2024-04-24T20:27:25.665Z,2.03
2024-04-24T20:29:53.052Z,2.13
2024-04-24T20:32:20.103Z,1.40
2024-04-24T20:34:46.888Z,2.60
2024-04-24T20:37:13.608Z,1.93
2024-04-24T20:39:41.738Z,2.33
2024-04-24T20:42:11.085Z,3.50
2024-04-24T20:44:38.776Z,2.60
2024-04-24T20:47:05.590Z,3.60
2024-04-24T20:49:32.499Z,2.80
2024-04-24T20:51:59.294Z,3.40
2024-04-24T20:54:26.056Z,5.13
2024-04-24T20:56:52.790Z,4.03
2024-04-24T20:59:21.249Z,4.73
2024-04-24T21:01:48.081Z,3.40
2024-04-24T21:04:14.852Z,4.57
2024-04-24T21:06:41.567Z,3.30
2024-04-24T21:09:08.263Z,11.90
2024-04-24T21:11:34.964Z,3.80
2024-04-24T21:14:02.271Z,3.53
2024-04-24T21:16:29.023Z,5.37
2024-04-24T21:18:55.905Z,2.60
2024-04-24T21:21:23.453Z,2.70
2024-04-24T21:23:54.090Z,3.23
2024-04-24T21:26:22.533Z,4.77
2024-04-24T21:28:49.381Z,3.30
2024-04-24T21:31:16.125Z,2.40
2024-04-24T21:33:43.005Z,3.03
2024-04-24T21:36:09.830Z,3.10
2024-04-24T21:38:36.759Z,3.70
2024-04-24T21:41:07.529Z,2.90
2024-04-24T21:43:34.321Z,3.20
2024-04-24T21:46:06.662Z,3.17
2024-04-24T21:48:33.951Z,3.90
2024-04-24T21:51:00.672Z,4.40
2024-04-24T21:53:27.692Z,3.50
2024-04-24T21:55:58.143Z,3.20
2024-04-24T21:58:25.378Z,4.20
2024-04-24T22:00:52.235Z,8.33
2024-04-24T22:03:19.586Z,4.67
2024-04-24T22:05:46.551Z,5.37
2024-04-24T22:08:13.429Z,3.10
2024-04-24T22:10:40.805Z,2.90
2024-04-24T22:13:07.643Z,2.33
2024-04-24T22:15:36.666Z,3.47
2024-04-24T22:18:05.455Z,4.20
2024-04-24T22:20:32.360Z,4.83
2024-04-24T22:22:59.299Z,3.93
2024-04-24T22:25:27.044Z,3.77
2024-04-24T22:27:53.797Z,3.80
2024-04-24T22:30:20.565Z,3.70
2024-04-24T22:32:47.498Z,2.90
2024-04-24T22:35:14.353Z,3.30
2024-04-24T22:37:41.265Z,3.10
2024-04-24T22:40:08.351Z,3.37
2024-04-24T22:42:35.052Z,3.27
2024-04-24T22:45:01.766Z,2.73
2024-04-24T22:47:28.564Z,2.50
2024-04-24T22:49:55.407Z,2.70
2024-04-24T22:52:22.092Z,2.40
2024-04-24T22:54:49.508Z,2.40
2024-04-24T22:57:16.244Z,2.43
2024-04-24T22:59:43.001Z,2.10
2024-04-24T23:02:09.790Z,2.40
2024-04-24T23:04:36.556Z,2.67
2024-04-24T23:07:03.453Z,2.83
2024-04-24T23:09:30.221Z,2.60
2024-04-24T23:11:57.033Z,2.43
2024-04-24T23:14:26.405Z,2.73
2024-04-24T23:16:54.067Z,2.90
2024-04-24T23:19:21.484Z,3.23
2024-04-24T23:21:48.981Z,2.80
2024-04-24T23:24:16.408Z,2.50
2024-04-24T23:26:47.515Z,2.70
2024-04-24T23:29:15.017Z,2.40
2024-04-24T23:31:41.808Z,4.47
2024-04-24T23:34:08.623Z,3.40
2024-04-24T23:36:35.301Z,2.70
2024-04-24T23:39:06.064Z,2.50
2024-04-24T23:41:32.739Z,2.50
2024-04-24T23:43:59.453Z,2.67
2024-04-24T23:46:26.140Z,2.43
2024-04-24T23:48:53.480Z,2.37
2024-04-24T23:51:20.133Z,2.50
2024-04-24T23:53:48.711Z,2.33
2024-04-24T23:56:18.931Z,2.80
2024-04-24T23:58:45.854Z,2.27
